South Camden, New Jersey
Current Conditions -  °F | °C
As of 8:54 PM on Wednesday 17 Dec 2014 (Local Time) from KPHL Reporting Station
Clear Clear  
Wind Chill: 35°   Ceiling: Unl
Heat Index: 42°   Visibility: 10mi
Dew Point: 23°   Wind: 14mph
Humidity: 47%   Direction: 290°WNW
Pressure: 29.99"   Gusts: NA
Location:  39.9206°N, 75.1123°W
Report Text: KPHL 180154Z 29012KT 10SM CLR 06/M05 A2999 RMK AO2 SLP154 T00561050
Loading
Personal Weather Stations






























Interactive Weather Map New forecast layout! Learn more

10-Day Weather Forecast

Advertisements
Track Severe Weather on mobile